createdAt,value
2023-03-26T00:02:03.144Z,0.98
2023-03-26T00:05:07.782Z,0.70
2023-03-26T00:08:11.192Z,0.90
2023-03-26T00:11:16.168Z,0.60
2023-03-26T00:14:18.743Z,0.60
2023-03-26T00:17:22.102Z,0.85
2023-03-26T00:20:24.981Z,0.60
2023-03-26T00:23:29.003Z,0.80
2023-03-26T00:26:33.784Z,0.60
2023-03-26T00:29:36.920Z,0.75
2023-03-26T00:32:39.756Z,1.00
2023-03-26T00:35:47.329Z,0.90
2023-03-26T00:38:50.059Z,0.70
2023-03-26T00:41:54.573Z,0.47
2023-03-26T00:45:00.644Z,0.50
2023-03-26T00:48:04.247Z,0.73
2023-03-26T00:51:08.814Z,0.50
2023-03-26T00:54:11.940Z,0.52
2023-03-26T00:57:20.293Z,0.60
2023-03-26T01:00:36.520Z,0.90
2023-03-26T01:03:39.822Z,0.65
2023-03-26T01:06:45.279Z,0.62
2023-03-26T01:09:52.711Z,0.50
2023-03-26T01:12:56.114Z,0.60
2023-03-26T01:16:01.984Z,0.50
2023-03-26T01:19:16.600Z,0.57
2023-03-26T01:22:23.710Z,0.40
2023-03-26T01:25:29.821Z,0.80
2023-03-26T01:28:34.305Z,0.50
2023-03-26T01:32:22.676Z,0.50
2023-03-26T01:35:53.545Z,0.50
2023-03-26T01:39:27.950Z,0.40
2023-03-26T01:42:37.961Z,0.57
2023-03-26T01:45:42.502Z,0.40
2023-03-26T01:48:47.183Z,0.50
2023-03-26T01:51:51.285Z,0.35
2023-03-26T01:54:55.598Z,0.32
2023-03-26T01:58:08.925Z,0.70
2023-03-26T02:01:31.156Z,0.57
2023-03-26T02:04:38.507Z,0.60
2023-03-26T02:07:59.015Z,0.50
2023-03-26T02:11:11.847Z,0.50
2023-03-26T02:14:15.389Z,0.40
2023-03-26T02:17:19.399Z,0.40
2023-03-26T02:20:23.888Z,0.45
2023-03-26T02:23:29.728Z,0.50
2023-03-26T02:26:34.532Z,0.55
2023-03-26T02:29:40.564Z,0.45
2023-03-26T02:32:44.221Z,0.23
2023-03-26T02:35:47.021Z,0.43
2023-03-26T02:38:50.798Z,0.40
2023-03-26T02:41:53.582Z,0.30
2023-03-26T02:44:56.597Z,0.70
2023-03-26T02:48:03.634Z,0.70
2023-03-26T02:51:07.836Z,0.50
2023-03-26T02:54:10.956Z,0.60
2023-03-26T02:57:15.723Z,0.30
2023-03-26T03:00:22.132Z,0.40
2023-03-26T03:03:31.699Z,0.40
2023-03-26T03:06:35.723Z,0.43
2023-03-26T03:09:38.750Z,0.65
2023-03-26T03:12:44.791Z,0.32
2023-03-26T03:15:47.750Z,0.50
2023-03-26T03:18:54.645Z,0.77
2023-03-26T03:34:38.707Z,1.03
2023-03-26T03:38:20.039Z,0.50
2023-03-26T03:42:18.996Z,0.62
2023-03-26T03:46:18.104Z,0.60
2023-03-26T03:54:18.654Z,0.63
2023-03-26T03:58:21.883Z,0.40
2023-03-26T04:02:26.423Z,0.32
2023-03-26T04:06:18.931Z,0.40
2023-03-26T04:10:18.363Z,0.50
2023-03-26T04:14:19.727Z,0.50
2023-03-26T04:18:18.677Z,0.47
2023-03-26T04:22:18.491Z,0.50
2023-03-26T04:26:20.028Z,0.55
2023-03-26T04:30:20.614Z,0.40
2023-03-26T04:34:19.218Z,0.57
2023-03-26T04:38:18.906Z,0.57
2023-03-26T04:42:17.911Z,0.62
2023-03-26T04:46:18.570Z,0.50
2023-03-26T04:50:18.026Z,0.50
2023-03-26T04:54:17.015Z,0.30
2023-03-26T04:58:18.476Z,0.50
2023-03-26T05:02:18.161Z,0.90
2023-03-26T05:06:17.757Z,0.50
2023-03-26T05:10:20.083Z,0.80
2023-03-26T05:14:19.558Z,0.70
2023-03-26T05:18:17.424Z,0.80
2023-03-26T05:26:17.270Z,0.98
2023-03-26T05:30:19.537Z,0.90
2023-03-26T05:34:18.425Z,0.57
2023-03-26T05:38:18.189Z,0.47
2023-03-26T05:42:17.133Z,0.70
2023-03-26T05:46:17.595Z,0.77
2023-03-26T05:50:18.893Z,0.70
2023-03-26T05:54:18.517Z,0.80
2023-03-26T05:58:19.400Z,0.93
2023-03-26T06:02:17.518Z,0.93
2023-03-26T06:10:19.134Z,0.60
2023-03-26T06:14:17.685Z,0.40
2023-03-26T06:18:17.873Z,0.60
2023-03-26T06:22:17.186Z,0.43
2023-03-26T06:26:18.958Z,0.40
2023-03-26T06:30:17.961Z,0.63
2023-03-26T06:34:17.605Z,0.67
2023-03-26T06:38:19.741Z,0.68
2023-03-26T06:42:18.145Z,0.50
2023-03-26T06:46:17.498Z,0.50
2023-03-26T06:50:19.924Z,0.60
2023-03-26T06:54:20.484Z,0.50
2023-03-26T06:57:23.269Z,0.50
2023-03-26T07:00:29.600Z,0.37
2023-03-26T07:03:38.501Z,0.40
2023-03-26T07:06:50.380Z,0.40
2023-03-26T07:10:03.937Z,0.60
2023-03-26T07:13:09.449Z,0.40
2023-03-26T07:16:14.177Z,0.80
2023-03-26T07:19:18.235Z,1.05
2023-03-26T07:22:23.227Z,1.33
2023-03-26T07:25:29.434Z,1.20
2023-03-26T07:28:39.344Z,0.57
2023-03-26T07:31:46.066Z,0.73
2023-03-26T07:35:21.614Z,0.45
2023-03-26T07:38:55.952Z,0.67
2023-03-26T07:42:27.237Z,0.43
2023-03-26T07:45:40.074Z,0.40
2023-03-26T07:48:47.850Z,0.50
2023-03-26T07:51:51.133Z,0.85
2023-03-26T07:54:56.752Z,0.60
2023-03-26T07:58:21.266Z,0.67
2023-03-26T08:01:24.167Z,0.50
2023-03-26T08:04:48.634Z,0.50
2023-03-26T08:08:16.569Z,0.32
2023-03-26T08:11:33.314Z,1.00
2023-03-26T08:14:45.479Z,0.60
2023-03-26T08:17:54.731Z,0.45
2023-03-26T08:21:06.330Z,0.50
2023-03-26T08:24:22.975Z,0.50
2023-03-26T08:27:51.848Z,0.47
2023-03-26T08:30:55.300Z,0.40
2023-03-26T08:33:58.530Z,0.40
2023-03-26T08:37:01.634Z,0.37
2023-03-26T08:40:04.440Z,0.50
2023-03-26T08:43:41.560Z,0.40
2023-03-26T08:47:02.602Z,0.30
2023-03-26T08:50:31.174Z,0.50
2023-03-26T08:53:55.625Z,0.40
2023-03-26T08:57:36.219Z,0.30
2023-03-26T09:00:41.589Z,0.82
2023-03-26T09:03:44.402Z,0.43
2023-03-26T09:07:07.771Z,0.40
2023-03-26T09:10:33.767Z,0.47
2023-03-26T09:14:00.364Z,0.40
2023-03-26T09:17:34.055Z,0.35
2023-03-26T09:20:59.174Z,0.40
2023-03-26T09:24:21.033Z,0.40
2023-03-26T09:27:26.576Z,0.40
2023-03-26T09:30:47.417Z,0.40
2023-03-26T09:34:01.936Z,1.70
2023-03-26T09:37:11.677Z,0.40
2023-03-26T09:40:20.347Z,0.30
2023-03-26T09:43:43.406Z,0.40
2023-03-26T09:47:13.167Z,0.40
2023-03-26T09:50:27.167Z,0.40
2023-03-26T09:53:39.593Z,0.30
2023-03-26T09:56:48.481Z,0.40
2023-03-26T10:00:18.831Z,0.43
2023-03-26T10:03:39.207Z,0.47
2023-03-26T10:06:48.696Z,0.60
2023-03-26T10:09:59.663Z,0.33
2023-03-26T10:13:37.824Z,0.55
2023-03-26T10:16:55.758Z,0.60
2023-03-26T10:20:17.801Z,0.40
2023-03-26T10:23:28.594Z,0.40
2023-03-26T10:26:39.778Z,0.30
2023-03-26T10:30:18.233Z,1.05
2023-03-26T10:33:50.317Z,0.70
2023-03-26T10:37:21.007Z,0.40
2023-03-26T10:40:31.679Z,0.40
2023-03-26T10:44:01.600Z,0.30
2023-03-26T10:47:12.804Z,0.50
2023-03-26T10:50:32.179Z,0.50
2023-03-26T10:53:40.858Z,0.70
2023-03-26T10:56:49.760Z,0.70
2023-03-26T10:59:56.039Z,0.60
2023-03-26T11:03:21.109Z,0.30
2023-03-26T11:06:31.419Z,0.30
2023-03-26T11:09:49.426Z,0.40
2023-03-26T11:13:08.891Z,0.50
2023-03-26T11:16:23.625Z,0.50
2023-03-26T11:19:58.072Z,0.47
2023-03-26T11:23:20.096Z,0.50
2023-03-26T11:26:29.093Z,0.40
2023-03-26T11:30:11.292Z,0.50
2023-03-26T11:33:21.293Z,0.40
2023-03-26T11:36:29.770Z,0.50
2023-03-26T11:39:48.552Z,0.52
2023-03-26T11:42:56.370Z,0.37
2023-03-26T11:45:59.923Z,0.50
2023-03-26T11:49:11.162Z,0.40
2023-03-26T11:52:15.800Z,0.40
2023-03-26T11:55:18.929Z,0.40
2023-03-26T11:58:26.442Z,0.30
2023-03-26T12:01:41.726Z,0.40
2023-03-26T12:04:51.515Z,0.40
2023-03-26T12:07:58.018Z,0.28
2023-03-26T12:11:05.248Z,0.40
2023-03-26T12:14:08.102Z,0.30
2023-03-26T12:17:34.112Z,0.30
2023-03-26T12:20:38.604Z,0.30
2023-03-26T12:24:01.291Z,0.30
2023-03-26T12:27:20.709Z,0.68
2023-03-26T12:30:26.928Z,2.50
2023-03-26T12:33:34.403Z,1.10
2023-03-26T12:36:39.058Z,0.50
2023-03-26T12:40:09.853Z,0.60
2023-03-26T12:44:48.103Z,0.60
2023-03-26T12:47:58.788Z,0.30
2023-03-26T12:50:15.148Z,0.50
2023-03-26T12:53:54.605Z,0.63
2023-03-26T12:57:17.003Z,0.55
2023-03-26T13:00:32.541Z,0.98
2023-03-26T13:03:45.321Z,0.68
2023-03-26T13:07:10.861Z,0.70
2023-03-26T13:11:03.024Z,0.60
2023-03-26T13:14:29.392Z,0.70
2023-03-26T13:17:43.634Z,0.70
2023-03-26T13:21:15.487Z,0.40
2023-03-26T13:24:28.016Z,0.80
2023-03-26T13:27:35.968Z,0.70
2023-03-26T13:31:08.812Z,1.05
2023-03-26T13:34:33.493Z,1.15
2023-03-26T13:37:51.435Z,0.90
2023-03-26T13:41:22.152Z,1.20
2023-03-26T13:44:31.216Z,1.17
2023-03-26T13:47:39.887Z,1.10
2023-03-26T13:50:45.736Z,1.15
2023-03-26T13:53:52.677Z,1.17
2023-03-26T13:57:10.174Z,1.00
2023-03-26T14:00:21.911Z,1.17
2023-03-26T14:03:49.411Z,1.50
2023-03-26T14:07:07.450Z,2.67
2023-03-26T14:10:15.575Z,2.20
2023-03-26T14:13:29.801Z,2.50
2023-03-26T14:16:40.373Z,1.83
2023-03-26T14:19:47.418Z,1.40
2023-03-26T14:23:00.407Z,1.42
2023-03-26T14:26:21.645Z,2.72
2023-03-26T14:29:38.073Z,2.40
2023-03-26T14:33:03.312Z,2.33
2023-03-26T14:36:51.075Z,1.85
2023-03-26T14:40:08.067Z,1.80
2023-03-26T14:43:38.238Z,1.90
2023-03-26T14:47:02.374Z,2.03
2023-03-26T14:50:36.041Z,1.53
2023-03-26T14:53:45.723Z,1.60
2023-03-26T14:57:26.414Z,1.90
2023-03-26T15:00:38.990Z,9.50
2023-03-26T15:04:09.623Z,5.10
2023-03-26T15:07:43.093Z,6.17
2023-03-26T15:11:02.221Z,4.20
2023-03-26T15:14:19.682Z,4.12
2023-03-26T15:17:32.141Z,3.58
2023-03-26T15:20:56.528Z,4.40
2023-03-26T15:24:05.917Z,3.00
2023-03-26T15:27:30.270Z,4.62
2023-03-26T15:31:06.646Z,5.05
2023-03-26T15:34:28.090Z,3.25
2023-03-26T15:37:57.270Z,2.37
2023-03-26T15:41:45.546Z,2.73
2023-03-26T15:44:55.375Z,2.95
2023-03-26T15:48:19.107Z,2.67
2023-03-26T15:51:54.591Z,5.60
2023-03-26T15:55:27.813Z,3.17
2023-03-26T15:58:38.189Z,2.80
2023-03-26T16:02:02.846Z,3.03
2023-03-26T16:05:27.947Z,2.97
2023-03-26T16:09:14.880Z,3.05
2023-03-26T16:12:26.256Z,2.90
2023-03-26T16:15:31.992Z,3.57
2023-03-26T16:18:35.975Z,3.70
2023-03-26T16:21:43.743Z,3.65
2023-03-26T16:24:47.854Z,2.85
2023-03-26T16:28:17.212Z,2.93
2023-03-26T16:31:38.211Z,2.40
2023-03-26T16:34:53.369Z,2.62
2023-03-26T16:38:13.963Z,2.40
2023-03-26T16:41:45.282Z,3.22
2023-03-26T16:44:53.235Z,3.37
2023-03-26T16:47:59.025Z,3.23
2023-03-26T16:51:12.419Z,3.00
2023-03-26T16:54:25.541Z,2.67
2023-03-26T16:57:36.968Z,2.72
2023-03-26T17:00:49.720Z,2.87
2023-03-26T17:04:02.644Z,4.10
2023-03-26T17:07:23.792Z,3.03
2023-03-26T17:10:57.117Z,2.60
2023-03-26T17:14:17.979Z,2.62
2023-03-26T17:17:36.912Z,2.77
2023-03-26T17:20:49.372Z,2.17
2023-03-26T17:24:07.902Z,1.75
2023-03-26T17:27:36.000Z,2.10
2023-03-26T17:30:45.450Z,2.10
2023-03-26T17:33:48.559Z,2.23
2023-03-26T17:36:58.976Z,2.87
2023-03-26T17:40:01.723Z,4.85
2023-03-26T17:43:12.636Z,2.35
2023-03-26T17:46:33.901Z,2.30
2023-03-26T17:49:37.541Z,2.50
2023-03-26T17:52:49.678Z,2.50
2023-03-26T17:55:53.964Z,1.17
2023-03-26T17:59:11.526Z,1.50
2023-03-26T18:02:32.224Z,1.00
2023-03-26T18:05:39.094Z,0.87
2023-03-26T18:08:48.332Z,1.00
2023-03-26T18:11:51.543Z,1.67
2023-03-26T18:15:10.685Z,1.25
2023-03-26T18:18:19.961Z,0.80
2023-03-26T18:21:50.507Z,0.90
2023-03-26T18:24:59.808Z,0.30
2023-03-26T18:28:02.835Z,0.88
2023-03-26T18:31:21.111Z,1.05
2023-03-26T18:34:26.169Z,0.80
2023-03-26T18:37:34.400Z,0.73
2023-03-26T18:40:41.378Z,0.50
2023-03-26T18:43:44.835Z,0.40
2023-03-26T18:46:47.926Z,0.40
2023-03-26T18:49:54.723Z,0.40
2023-03-26T18:53:00.368Z,1.00
2023-03-26T18:56:27.628Z,1.23
2023-03-26T18:59:35.175Z,0.70
2023-03-26T19:02:38.570Z,1.23
2023-03-26T19:05:41.637Z,1.52
2023-03-26T19:08:46.007Z,2.70
2023-03-26T19:11:50.622Z,2.20
2023-03-26T19:15:16.145Z,1.65
2023-03-26T19:18:24.931Z,1.10
2023-03-26T19:21:28.634Z,1.45
2023-03-26T19:24:31.974Z,0.83
2023-03-26T19:27:38.597Z,0.97
2023-03-26T19:30:43.998Z,0.80
2023-03-26T19:33:58.027Z,1.00
2023-03-26T19:37:03.092Z,1.10
2023-03-26T19:40:17.591Z,1.33
2023-03-26T19:43:22.275Z,0.80
2023-03-26T19:46:26.819Z,0.95
2023-03-26T19:50:04.332Z,0.95
2023-03-26T19:53:37.430Z,0.80
2023-03-26T19:56:40.680Z,0.80
2023-03-26T19:59:43.914Z,0.63
2023-03-26T20:02:54.070Z,0.70
2023-03-26T20:05:57.503Z,0.40
2023-03-26T20:09:00.527Z,0.62
2023-03-26T20:12:03.758Z,0.87
2023-03-26T20:15:37.124Z,0.40
2023-03-26T20:18:40.229Z,0.50
2023-03-26T20:21:44.433Z,0.90
2023-03-26T20:24:48.176Z,0.98
2023-03-26T20:27:53.094Z,0.60
2023-03-26T20:30:58.720Z,0.77
2023-03-26T20:34:02.573Z,0.95
2023-03-26T20:37:05.561Z,0.73
2023-03-26T20:40:08.845Z,0.70
2023-03-26T20:43:18.434Z,0.87
2023-03-26T20:46:31.316Z,0.80
2023-03-26T20:49:35.438Z,0.70
2023-03-26T20:52:38.496Z,0.77
2023-03-26T20:55:44.057Z,1.25
2023-03-26T20:58:54.763Z,1.20
2023-03-26T21:02:03.492Z,0.50
2023-03-26T21:05:09.318Z,1.42
2023-03-26T21:08:18.269Z,1.02
2023-03-26T21:11:35.832Z,1.17
2023-03-26T21:14:41.932Z,1.30
2023-03-26T21:17:44.840Z,1.10
2023-03-26T21:21:14.104Z,1.77
2023-03-26T21:24:58.291Z,1.67
2023-03-26T21:28:09.483Z,1.12
2023-03-26T21:31:21.078Z,1.73
2023-03-26T21:34:24.357Z,0.90
2023-03-26T21:37:27.723Z,1.10
2023-03-26T21:40:31.450Z,1.12
2023-03-26T21:43:34.155Z,1.35
2023-03-26T21:46:37.300Z,1.30
2023-03-26T21:49:40.350Z,0.77
2023-03-26T21:52:50.893Z,0.90
2023-03-26T21:56:31.388Z,1.15
2023-03-26T21:59:51.804Z,1.05
2023-03-26T22:03:16.100Z,1.30
2023-03-26T22:06:32.461Z,1.97
2023-03-26T22:09:36.537Z,1.48
2023-03-26T22:12:39.739Z,1.62
2023-03-26T22:15:42.280Z,1.37
2023-03-26T22:18:45.214Z,1.87
2023-03-26T22:21:47.937Z,1.70
2023-03-26T22:24:50.761Z,1.70
2023-03-26T22:27:54.089Z,2.00
2023-03-26T22:30:57.385Z,1.70
2023-03-26T22:34:00.194Z,1.43
2023-03-26T22:37:03.023Z,1.40
2023-03-26T22:40:09.160Z,1.33
2023-03-26T22:43:12.297Z,1.60
2023-03-26T22:46:15.382Z,1.23
2023-03-26T22:49:18.681Z,1.57
2023-03-26T22:52:21.258Z,1.23
2023-03-26T22:55:28.418Z,1.50
2023-03-26T22:58:33.644Z,1.10
2023-03-26T23:01:37.036Z,1.37
2023-03-26T23:04:40.560Z,1.60
2023-03-26T23:07:43.733Z,1.10
2023-03-26T23:10:47.107Z,1.30
2023-03-26T23:13:50.494Z,1.08
2023-03-26T23:16:53.282Z,1.55
2023-03-26T23:19:56.239Z,0.97
2023-03-26T23:22:58.845Z,0.80
2023-03-26T23:26:03.843Z,0.65
2023-03-26T23:29:06.681Z,1.70
2023-03-26T23:32:23.509Z,1.70
2023-03-26T23:35:27.522Z,1.60
2023-03-26T23:38:44.145Z,1.50
2023-03-26T23:41:47.288Z,1.40
2023-03-26T23:44:50.158Z,1.17
2023-03-26T23:47:52.680Z,1.55
2023-03-26T23:51:03.907Z,1.83
2023-03-26T23:54:08.829Z,1.60
2023-03-26T23:57:11.996Z,1.60
